Photometre #849[NE_1.6_Dp] Portglenone_MO AOT

File : 20220919_849.hum

19/09/2022,07:07:13,TEMP=12.2,BA=5.68,STAT.A,ExtBa=12.20
19/09/2022,07:11:42,TEMP=12.4,BA=5.68,STAT.A,ExtBa=12.20
19/09/2022,07:16:57,TEMP=12.6,BA=5.68,STAT.A,ExtBa=12.20
19/09/2022,07:23:13,TEMP=12.7,BA=5.68,STAT.A,ExtBa=12.20
19/09/2022,07:30:45,TEMP=12.9,BA=5.64,STAT.A,ExtBa=12.20
19/09/2022,07:40:07,TEMP=13.1,BA=5.64,STAT.A,ExtBa=12.20
19/09/2022,07:52:00,TEMP=13.4,BA=5.68,STAT.B,ExtBa=12.20
19/09/2022,07:57:44,TEMP=13.6,BA=5.68,STAT.A,ExtBa=12.20
19/09/2022,08:04:10,TEMP=13.8,BA=5.64,STAT.A,ExtBa=12.20
19/09/2022,08:11:27,TEMP=14.0,BA=5.64,STAT.A,ExtBa=12.20
19/09/2022,08:19:49,TEMP=14.2,BA=5.64,STAT.A,ExtBa=12.20
19/09/2022,08:29:30,TEMP=14.5,BA=5.60,STAT.C,ExtBa=12.20
19/09/2022,08:40:54,TEMP=14.9,BA=5.64,STAT.A,ExtBa=12.20
19/09/2022,08:54:34,TEMP=15.1,BA=5.64,STAT.A,ExtBa=12.20
19/09/2022,09:11:23,TEMP=15.4,BA=5.64,STAT.A,ExtBa=12.20
19/09/2022,09:20:26,TEMP=16.0,BA=5.64,STAT.F,ExtBa=12.20
19/09/2022,09:58:33,TEMP=19.0,BA=5.56,STAT.D,ExtBa=12.10
19/09/2022,10:00:32,TEMP=19.0,BA=5.56,STAT.D,ExtBa=12.10
19/09/2022,10:05:24,TEMP=18.4,BA=5.56,STAT.D,ExtBa=12.10
19/09/2022,10:20:26,TEMP=18.2,BA=5.64,STAT.F,ExtBa=12.10
19/09/2022,11:02:52,TEMP=19.6,BA=5.52,STAT.D,ExtBa=12.10
19/09/2022,11:04:56,TEMP=20.1,BA=5.52,STAT.D,ExtBa=12.10
19/09/2022,11:06:56,TEMP=20.2,BA=5.52,STAT.D,ExtBa=12.10
19/09/2022,11:20:27,TEMP=20.0,BA=5.64,STAT.F,ExtBa=12.10
19/09/2022,11:56:19,TEMP=21.4,BA=5.52,STAT.D,ExtBa=12.10
19/09/2022,11:58:16,TEMP=21.2,BA=5.52,STAT.D,ExtBa=12.10
19/09/2022,12:05:25,TEMP=19.8,BA=5.56,STAT.D,ExtBa=12.10
19/09/2022,12:20:26,TEMP=18.5,BA=5.60,STAT.F,ExtBa=12.10
19/09/2022,12:35:25,TEMP=18.0,BA=5.60,STAT.D,ExtBa=12.10
19/09/2022,12:50:25,TEMP=18.2,BA=5.60,STAT.D,ExtBa=12.10
19/09/2022,13:05:25,TEMP=17.8,BA=5.64,STAT.D,ExtBa=12.10
19/09/2022,13:20:27,TEMP=17.5,BA=5.64,STAT.F,ExtBa=12.10
19/09/2022,13:35:25,TEMP=17.1,BA=5.64,STAT.D,ExtBa=12.10
19/09/2022,13:50:25,TEMP=16.7,BA=5.64,STAT.D,ExtBa=12.20
19/09/2022,14:05:25,TEMP=16.3,BA=5.64,STAT.D,ExtBa=12.20
19/09/2022,14:20:26,TEMP=16.1,BA=5.64,STAT.F,ExtBa=12.10
19/09/2022,14:35:25,TEMP=16.2,BA=5.64,STAT.D,ExtBa=12.20
19/09/2022,14:50:25,TEMP=15.2,BA=5.64,STAT.D,ExtBa=12.20
19/09/2022,15:05:24,TEMP=15.1,BA=5.64,STAT.D,ExtBa=12.20
19/09/2022,15:20:26,TEMP=15.7,BA=5.64,STAT.F,ExtBa=12.20
19/09/2022,15:29:29,TEMP=16.2,BA=5.64,STAT.A,ExtBa=12.20
19/09/2022,15:46:18,TEMP=16.6,BA=5.64,STAT.A,ExtBa=12.20
19/09/2022,15:59:58,TEMP=16.7,BA=5.64,STAT.A,ExtBa=12.20
19/09/2022,16:11:22,TEMP=16.6,BA=5.64,STAT.C,ExtBa=12.20
19/09/2022,16:21:03,TEMP=16.5,BA=5.64,STAT.A,ExtBa=12.20
19/09/2022,16:29:25,TEMP=16.5,BA=5.64,STAT.A,ExtBa=12.20
19/09/2022,16:36:42,TEMP=16.5,BA=5.56,STAT.A,ExtBa=12.20
19/09/2022,16:43:08,TEMP=16.5,BA=5.64,STAT.A,ExtBa=12.20
19/09/2022,16:48:50,TEMP=16.5,BA=5.64,STAT.B,ExtBa=12.20
19/09/2022,17:00:44,TEMP=16.3,BA=5.64,STAT.A,ExtBa=12.20
19/09/2022,17:10:06,TEMP=16.2,BA=5.60,STAT.A,ExtBa=12.20
19/09/2022,17:17:38,TEMP=16.1,BA=5.60,STAT.A,ExtBa=12.20
19/09/2022,17:23:53,TEMP=16.1,BA=5.64,STAT.A,ExtBa=12.20
19/09/2022,17:29:08,TEMP=16.1,BA=5.64,STAT.A,ExtBa=12.20
19/09/2022,17:33:37,TEMP=16.2,BA=5.56,STAT.A,ExtBa=12.20